sensor_id;sensor_type;location;lat;lon;timestamp;P1;durP1;ratioP1;P2;durP2;ratioP2
42904;SDS011;28550;51.228;4.528;2024-02-21T10:47:41;8.95;;;4.90;;
42904;SDS011;28550;51.228;4.528;2024-02-21T13:39:23;14.07;;;6.15;;
42904;SDS011;28550;51.228;4.528;2024-02-21T13:42:03;16.05;;;6.38;;
42904;SDS011;28550;51.228;4.528;2024-02-21T13:44:36;12.98;;;6.85;;
42904;SDS011;28550;51.228;4.528;2024-02-21T14:34:54;14.77;;;8.75;;
42904;SDS011;28550;51.228;4.528;2024-02-21T14:37:20;16.48;;;8.38;;
42904;SDS011;28550;51.228;4.528;2024-02-21T14:39:46;17.38;;;9.05;;
42904;SDS011;28550;51.228;4.528;2024-02-21T14:42:12;16.00;;;9.20;;
42904;SDS011;28550;51.228;4.528;2024-02-21T14:44:58;15.27;;;9.52;;
42904;SDS011;28550;51.228;4.528;2024-02-21T14:47:39;19.55;;;10.15;;
42904;SDS011;28550;51.228;4.528;2024-02-21T14:50:24;18.08;;;9.35;;
42904;SDS011;28550;51.228;4.528;2024-02-21T14:56:45;15.68;;;9.23;;
42904;SDS011;28550;51.228;4.528;2024-02-21T14:59:21;25.92;;;10.38;;
42904;SDS011;28550;51.228;4.528;2024-02-21T15:01:46;16.05;;;8.80;;
42904;SDS011;28550;51.228;4.528;2024-02-21T15:04:13;13.95;;;9.02;;
42904;SDS011;28550;51.228;4.528;2024-02-21T15:06:39;12.43;;;8.25;;
42904;SDS011;28550;51.228;4.528;2024-02-21T15:09:05;18.35;;;10.05;;
42904;SDS011;28550;51.228;4.528;2024-02-21T15:11:32;17.10;;;9.50;;
42904;SDS011;28550;51.228;4.528;2024-02-21T15:13:58;15.25;;;9.05;;
42904;SDS011;28550;51.228;4.528;2024-02-21T15:16:24;17.38;;;8.20;;
42904;SDS011;28550;51.228;4.528;2024-02-21T15:19:22;15.57;;;8.05;;
42904;SDS011;28550;51.228;4.528;2024-02-21T15:21:50;15.93;;;8.10;;
42904;SDS011;28550;51.228;4.528;2024-02-21T15:24:21;15.00;;;8.38;;
42904;SDS011;28550;51.228;4.528;2024-02-21T15:26:48;12.43;;;8.82;;
42904;SDS011;28550;51.228;4.528;2024-02-21T15:29:38;15.70;;;8.02;;
42904;SDS011;28550;51.228;4.528;2024-02-21T15:32:06;13.10;;;8.32;;
42904;SDS011;28550;51.228;4.528;2024-02-21T15:34:32;13.55;;;8.68;;
42904;SDS011;28550;51.228;4.528;2024-02-21T15:37:00;14.93;;;7.80;;
42904;SDS011;28550;51.228;4.528;2024-02-21T15:39:27;16.80;;;8.65;;
42904;SDS011;28550;51.228;4.528;2024-02-21T15:41:57;16.00;;;8.38;;
42904;SDS011;28550;51.228;4.528;2024-02-21T15:44:25;14.52;;;9.48;;
42904;SDS011;28550;51.228;4.528;2024-02-21T15:46:52;15.05;;;8.40;;
42904;SDS011;28550;51.228;4.528;2024-02-21T15:49:20;15.18;;;9.30;;
42904;SDS011;28550;51.228;4.528;2024-02-21T15:51:47;16.90;;;8.40;;
42904;SDS011;28550;51.228;4.528;2024-02-21T15:54:33;13.55;;;8.80;;
42904;SDS011;28550;51.228;4.528;2024-02-21T15:57:01;14.77;;;8.60;;
42904;SDS011;28550;51.228;4.528;2024-02-21T16:02:12;13.88;;;9.15;;
42904;SDS011;28550;51.228;4.528;2024-02-21T16:04:42;16.13;;;8.70;;
42904;SDS011;28550;51.228;4.528;2024-02-21T16:07:11;21.80;;;9.35;;
42904;SDS011;28550;51.228;4.528;2024-02-21T16:09:52;18.23;;;9.27;;
42904;SDS011;28550;51.228;4.528;2024-02-21T16:12:22;15.95;;;9.18;;
42904;SDS011;28550;51.228;4.528;2024-02-21T16:14:48;18.15;;;9.25;;
42904;SDS011;28550;51.228;4.528;2024-02-21T16:17:33;17.55;;;9.60;;
42904;SDS011;28550;51.228;4.528;2024-02-21T16:20:08;16.95;;;9.18;;
42904;SDS011;28550;51.228;4.528;2024-02-21T16:22:43;19.13;;;9.48;;
42904;SDS011;28550;51.228;4.528;2024-02-21T16:25:24;14.40;;;8.80;;
42904;SDS011;28550;51.228;4.528;2024-02-21T16:28:02;19.88;;;10.80;;
42904;SDS011;28550;51.228;4.528;2024-02-21T16:30:33;19.98;;;9.40;;
42904;SDS011;28550;51.228;4.528;2024-02-21T16:33:00;14.25;;;8.88;;
42904;SDS011;28550;51.228;4.528;2024-02-21T16:35:28;13.95;;;9.13;;
42904;SDS011;28550;51.228;4.528;2024-02-21T16:40:39;17.90;;;8.90;;
42904;SDS011;28550;51.228;4.528;2024-02-21T16:43:11;14.38;;;9.40;;
42904;SDS011;28550;51.228;4.528;2024-02-21T16:45:46;15.20;;;8.35;;
42904;SDS011;28550;51.228;4.528;2024-02-21T16:48:34;15.48;;;9.27;;
42904;SDS011;28550;51.228;4.528;2024-02-21T16:51:17;14.73;;;8.70;;
42904;SDS011;28550;51.228;4.528;2024-02-21T16:53:47;14.90;;;10.40;;
42904;SDS011;28550;51.228;4.528;2024-02-21T16:56:35;17.02;;;8.48;;
42904;SDS011;28550;51.228;4.528;2024-02-21T16:59:40;12.52;;;8.07;;
42904;SDS011;28550;51.228;4.528;2024-02-21T17:02:12;14.57;;;8.43;;
42904;SDS011;28550;51.228;4.528;2024-02-21T17:04:48;14.50;;;8.95;;
42904;SDS011;28550;51.228;4.528;2024-02-21T17:07:21;13.32;;;9.35;;
42904;SDS011;28550;51.228;4.528;2024-02-21T17:09:59;12.35;;;7.93;;
42904;SDS011;28550;51.228;4.528;2024-02-21T17:12:46;17.45;;;8.60;;
42904;SDS011;28550;51.228;4.528;2024-02-21T17:36:37;21.52;;;12.68;;
42904;SDS011;28550;51.228;4.528;2024-02-21T17:53:06;13.63;;;7.85;;
42904;SDS011;28550;51.228;4.528;2024-02-21T18:11:01;16.13;;;8.45;;
42904;SDS011;28550;51.228;4.528;2024-02-21T18:13:49;10.63;;;7.67;;
42904;SDS011;28550;51.228;4.528;2024-02-21T18:16:58;12.38;;;7.05;;
42904;SDS011;28550;51.228;4.528;2024-02-21T18:28:42;11.63;;;7.88;;
42904;SDS011;28550;51.228;4.528;2024-02-21T18:53:24;15.32;;;7.60;;
42904;SDS011;28550;51.228;4.528;2024-02-21T18:56:54;9.73;;;6.90;;
42904;SDS011;28550;51.228;4.528;2024-02-21T19:14:05;10.80;;;7.07;;
42904;SDS011;28550;51.228;4.528;2024-02-21T19:53:17;8.95;;;6.63;;
42904;SDS011;28550;51.228;4.528;2024-02-21T19:55:49;9.40;;;6.70;;
42904;SDS011;28550;51.228;4.528;2024-02-21T19:58:17;9.88;;;7.03;;
42904;SDS011;28550;51.228;4.528;2024-02-21T20:07:12;8.63;;;6.90;;
42904;SDS011;28550;51.228;4.528;2024-02-21T20:10:26;9.50;;;7.57;;
42904;SDS011;28550;51.228;4.528;2024-02-21T20:23:52;9.95;;;7.18;;
42904;SDS011;28550;51.228;4.528;2024-02-21T20:26:47;9.65;;;7.45;;
42904;SDS011;28550;51.228;4.528;2024-02-21T20:29:31;9.50;;;6.55;;
42904;SDS011;28550;51.228;4.528;2024-02-21T20:32:33;11.13;;;7.45;;
42904;SDS011;28550;51.228;4.528;2024-02-21T20:35:40;9.50;;;7.50;;
42904;SDS011;28550;51.228;4.528;2024-02-21T20:41:52;9.95;;;6.78;;
42904;SDS011;28550;51.228;4.528;2024-02-21T20:47:30;9.05;;;6.65;;
42904;SDS011;28550;51.228;4.528;2024-02-21T21:15:32;11.48;;;7.82;;
42904;SDS011;28550;51.228;4.528;2024-02-21T21:25:37;12.73;;;8.65;;
42904;SDS011;28550;51.228;4.528;2024-02-21T21:28:17;11.38;;;8.70;;
42904;SDS011;28550;51.228;4.528;2024-02-21T21:30:48;12.20;;;9.30;;
42904;SDS011;28550;51.228;4.528;2024-02-21T21:33:23;12.15;;;9.10;;
42904;SDS011;28550;51.228;4.528;2024-02-21T21:35:54;12.55;;;9.05;;
42904;SDS011;28550;51.228;4.528;2024-02-21T21:38:35;14.80;;;10.23;;
42904;SDS011;28550;51.228;4.528;2024-02-21T21:41:05;15.13;;;10.60;;
42904;SDS011;28550;51.228;4.528;2024-02-21T21:43:57;12.50;;;9.18;;
42904;SDS011;28550;51.228;4.528;2024-02-21T21:46:36;12.38;;;9.90;;
42904;SDS011;28550;51.228;4.528;2024-02-21T21:49:15;13.23;;;10.25;;
42904;SDS011;28550;51.228;4.528;2024-02-21T21:51:46;14.25;;;10.32;;
42904;SDS011;28550;51.228;4.528;2024-02-21T21:54:11;16.95;;;10.35;;
42904;SDS011;28550;51.228;4.528;2024-02-21T21:56:43;16.25;;;10.35;;
42904;SDS011;28550;51.228;4.528;2024-02-21T21:59:30;14.48;;;10.70;;
42904;SDS011;28550;51.228;4.528;2024-02-21T22:06:00;14.55;;;10.93;;
42904;SDS011;28550;51.228;4.528;2024-02-21T22:09:19;16.58;;;10.40;;
42904;SDS011;28550;51.228;4.528;2024-02-21T22:11:54;15.82;;;11.45;;
42904;SDS011;28550;51.228;4.528;2024-02-21T22:14:37;14.77;;;11.35;;
42904;SDS011;28550;51.228;4.528;2024-02-21T22:17:18;15.57;;;11.10;;
42904;SDS011;28550;51.228;4.528;2024-02-21T22:20:19;17.42;;;11.20;;
42904;SDS011;28550;51.228;4.528;2024-02-21T22:23:05;15.65;;;10.65;;
42904;SDS011;28550;51.228;4.528;2024-02-21T22:35:21;18.30;;;12.60;;
42904;SDS011;28550;51.228;4.528;2024-02-21T22:38:47;18.48;;;12.18;;
42904;SDS011;28550;51.228;4.528;2024-02-21T22:41:20;15.48;;;11.52;;
42904;SDS011;28550;51.228;4.528;2024-02-21T22:44:08;16.65;;;11.98;;
42904;SDS011;28550;51.228;4.528;2024-02-21T22:47:22;15.20;;;11.55;;
42904;SDS011;28550;51.228;4.528;2024-02-21T22:50:12;17.20;;;11.80;;
42904;SDS011;28550;51.228;4.528;2024-02-21T22:53:02;17.08;;;12.13;;
42904;SDS011;28550;51.228;4.528;2024-02-21T22:56:04;18.13;;;13.10;;
42904;SDS011;28550;51.228;4.528;2024-02-21T23:02:15;18.52;;;13.02;;
42904;SDS011;28550;51.228;4.528;2024-02-21T23:08:18;18.80;;;12.57;;
42904;SDS011;28550;51.228;4.528;2024-02-21T23:10:54;16.42;;;12.32;;
42904;SDS011;28550;51.228;4.528;2024-02-21T23:17:37;16.42;;;11.32;;
42904;SDS011;28550;51.228;4.528;2024-02-21T23:36:54;15.05;;;10.70;;
42904;SDS011;28550;51.228;4.528;2024-02-21T23:46:29;15.30;;;10.57;;
42904;SDS011;28550;51.228;4.528;2024-02-21T23:59:12;13.93;;;10.25;;
